createdAt,value
2019-05-02T00:00:29.353Z,7.13
2019-05-02T00:05:34.908Z,7.50
2019-05-02T00:10:40.850Z,7.17
2019-05-02T00:15:48.101Z,7.27
2019-05-02T00:20:52.634Z,7.10
2019-05-02T00:25:58.485Z,6.60
2019-05-02T00:31:07.485Z,6.90
2019-05-02T00:36:12.389Z,7.10
2019-05-02T00:41:17.079Z,6.30
2019-05-02T00:46:22.807Z,6.37
2019-05-02T00:51:28.151Z,7.00
2019-05-02T00:56:33.944Z,6.67
2019-05-02T01:01:51.447Z,6.43
2019-05-02T01:06:57.453Z,6.87
2019-05-02T01:12:03.280Z,7.43
2019-05-02T01:17:09.492Z,6.70
2019-05-02T01:22:16.008Z,7.27
2019-05-02T01:27:26.233Z,6.80
2019-05-02T01:32:50.288Z,7.03
2019-05-02T01:38:16.990Z,7.00
2019-05-02T01:43:24.182Z,6.73
2019-05-02T01:48:28.643Z,6.67
2019-05-02T01:53:35.793Z,7.23
2019-05-02T01:58:40.471Z,7.27
2019-05-02T02:03:47.020Z,6.83
2019-05-02T02:08:51.909Z,6.67
2019-05-02T02:13:57.704Z,6.73
2019-05-02T02:19:09.929Z,6.50
2019-05-02T02:24:29.078Z,6.90
2019-05-02T02:29:33.682Z,5.87
2019-05-02T02:34:39.542Z,5.57
2019-05-02T02:39:48.438Z,6.80
2019-05-02T02:45:12.978Z,6.87
2019-05-02T02:50:16.999Z,6.27
2019-05-02T02:55:24.243Z,6.57
2019-05-02T03:00:27.900Z,7.17
2019-05-02T03:05:32.497Z,5.90
2019-05-02T03:10:39.995Z,7.20
2019-05-02T03:15:49.676Z,6.27
2019-05-02T03:20:54.313Z,6.07
2019-05-02T03:26:00.296Z,6.30
2019-05-02T03:31:21.730Z,7.30
2019-05-02T03:36:28.574Z,7.07
2019-05-02T03:41:20.715Z,6.77
2019-05-02T03:46:26.678Z,6.10
2019-05-02T03:51:31.311Z,6.90
2019-05-02T03:56:37.245Z,6.40
2019-05-02T04:01:43.142Z,6.70
2019-05-02T04:06:48.320Z,6.70
2019-05-02T04:11:52.858Z,6.70
2019-05-02T04:16:58.998Z,6.50
2019-05-02T04:22:08.940Z,7.10
2019-05-02T04:27:12.111Z,6.47
2019-05-02T04:32:18.534Z,6.90
2019-05-02T04:37:23.143Z,7.27
2019-05-02T04:42:29.414Z,7.17
2019-05-02T04:47:34.326Z,7.97
2019-05-02T04:52:51.199Z,8.17
2019-05-02T04:57:50.423Z,8.87
2019-05-02T05:02:53.192Z,7.60
2019-05-02T05:07:58.631Z,8.50
2019-05-02T05:13:03.416Z,8.33
2019-05-02T05:18:12.616Z,7.83
2019-05-02T05:23:21.355Z,9.10
2019-05-02T05:28:24.175Z,9.87
2019-05-02T05:33:28.705Z,8.43
2019-05-02T05:38:36.118Z,9.60
2019-05-02T05:43:40.496Z,8.40
2019-05-02T05:48:47.635Z,8.53
2019-05-02T05:53:59.095Z,8.50
2019-05-02T05:59:00.670Z,9.83
2019-05-02T06:04:05.403Z,9.00
2019-05-02T06:09:13.643Z,8.73
2019-05-02T06:14:20.033Z,10.90
2019-05-02T06:19:23.714Z,10.27
2019-05-02T06:24:28.306Z,10.07
2019-05-02T06:29:34.481Z,10.53
2019-05-02T06:34:46.605Z,10.83
2019-05-02T06:39:46.080Z,10.27
2019-05-02T06:44:54.894Z,11.20
2019-05-02T06:50:01.241Z,13.93
2019-05-02T06:55:04.263Z,11.57
2019-05-02T07:00:09.901Z,11.93
2019-05-02T07:05:14.493Z,12.00
2019-05-02T07:10:20.031Z,10.30
2019-05-02T07:15:40.338Z,12.00
2019-05-02T07:20:44.777Z,11.70
2019-05-02T07:25:49.420Z,11.53
2019-05-02T07:30:54.792Z,13.63
2019-05-02T07:36:01.455Z,14.60
2019-05-02T07:41:06.412Z,16.60
2019-05-02T07:46:11.035Z,14.73
2019-05-02T07:51:17.312Z,13.03
2019-05-02T07:56:22.139Z,13.17
2019-05-02T08:01:26.795Z,14.83
2019-05-02T08:06:35.511Z,14.77
2019-05-02T08:11:38.515Z,12.53
2019-05-02T08:16:43.351Z,13.80
2019-05-02T08:21:48.238Z,15.57
2019-05-02T08:27:15.070Z,14.67
2019-05-02T08:32:20.646Z,15.70
2019-05-02T08:37:26.686Z,15.80
2019-05-02T08:42:32.559Z,16.07
2019-05-02T08:47:37.907Z,16.60
2019-05-02T08:52:44.236Z,16.30
2019-05-02T08:57:48.857Z,16.57
2019-05-02T09:02:57.069Z,17.37
2019-05-02T09:08:00.505Z,17.90
2019-05-02T09:13:05.862Z,17.83
2019-05-02T09:18:12.361Z,17.23
2019-05-02T09:23:16.750Z,18.33
2019-05-02T09:28:22.462Z,14.67
2019-05-02T09:33:27.546Z,11.60
2019-05-02T09:38:32.877Z,12.03
2019-05-02T09:43:39.249Z,12.77
2019-05-02T09:48:44.062Z,12.40
2019-05-02T09:53:48.665Z,11.83
2019-05-02T09:58:55.356Z,12.93
2019-05-02T10:03:59.767Z,11.43
2019-05-02T10:09:06.020Z,13.83
2019-05-02T10:14:12.132Z,11.40
2019-05-02T10:19:16.693Z,12.73
2019-05-02T10:24:22.213Z,11.97
2019-05-02T10:29:28.430Z,13.07
2019-05-02T10:34:33.146Z,12.67
2019-05-02T10:39:38.024Z,13.33
2019-05-02T10:44:42.768Z,10.33
2019-05-02T10:49:54.532Z,10.90
2019-05-02T10:54:59.097Z,11.73
2019-05-02T11:00:03.953Z,8.83
2019-05-02T11:05:16.847Z,11.43
2019-05-02T11:10:19.327Z,9.53
2019-05-02T11:15:42.113Z,9.87
2019-05-02T11:20:46.886Z,9.17
2019-05-02T11:25:52.608Z,10.40
2019-05-02T11:31:02.528Z,8.40
2019-05-02T11:36:04.486Z,10.60
2019-05-02T11:41:11.930Z,9.20
2019-05-02T11:46:16.551Z,9.17
2019-05-02T11:51:22.812Z,7.00
2019-05-02T11:56:28.599Z,7.73
2019-05-02T12:01:39.516Z,9.73
2019-05-02T12:06:42.249Z,10.00
2019-05-02T12:11:54.965Z,10.97
2019-05-02T12:16:54.281Z,9.97
2019-05-02T12:22:02.417Z,11.20
2019-05-02T12:27:06.690Z,9.37
2019-05-02T12:32:15.506Z,7.90
2019-05-02T12:37:18.935Z,10.50
2019-05-02T12:42:25.085Z,10.57
2019-05-02T12:47:31.921Z,11.67
2019-05-02T12:52:37.932Z,12.80
2019-05-02T12:57:43.000Z,12.23
2019-05-02T13:02:55.511Z,10.53
2019-05-02T13:08:00.081Z,10.70
2019-05-02T13:13:06.891Z,10.07
2019-05-02T13:18:12.467Z,12.00
2019-05-02T13:23:37.293Z,8.47
2019-05-02T13:28:44.179Z,8.90
2019-05-02T13:34:01.849Z,9.07
2019-05-02T13:39:08.105Z,12.67
2019-05-02T13:44:16.388Z,12.33
2019-05-02T13:49:21.963Z,13.20
2019-05-02T13:54:27.915Z,11.73
2019-05-02T13:59:33.729Z,11.33
2019-05-02T14:04:41.520Z,11.33
2019-05-02T14:09:58.271Z,12.47
2019-05-02T14:15:03.020Z,11.07
2019-05-02T14:20:11.108Z,12.43
2019-05-02T14:25:15.563Z,13.50
2019-05-02T14:30:35.717Z,11.20
2019-05-02T14:35:32.457Z,9.30
2019-05-02T14:40:39.757Z,10.53
2019-05-02T14:45:44.457Z,10.07
2019-05-02T14:50:49.097Z,10.03
2019-05-02T14:55:57.598Z,11.47
2019-05-02T15:01:03.425Z,9.13
2019-05-02T15:06:09.321Z,8.63
2019-05-02T15:11:14.098Z,9.27
2019-05-02T15:16:23.081Z,8.77
2019-05-02T15:21:42.181Z,9.30
2019-05-02T15:26:52.525Z,7.00
2019-05-02T15:32:19.256Z,7.20
2019-05-02T15:37:26.048Z,6.57
2019-05-02T15:42:32.264Z,6.90
2019-05-02T15:47:41.666Z,7.40
2019-05-02T15:52:49.036Z,6.57
2019-05-02T15:57:53.833Z,6.00
2019-05-02T16:03:02.946Z,7.17
2019-05-02T16:08:08.799Z,6.20
2019-05-02T16:13:17.140Z,7.13
2019-05-02T16:18:21.577Z,6.60
2019-05-02T16:23:32.716Z,6.43
2019-05-02T16:28:36.859Z,6.10
2019-05-02T16:33:41.870Z,6.43
2019-05-02T16:38:46.478Z,6.37
2019-05-02T16:43:51.855Z,6.07
2019-05-02T16:48:56.513Z,6.53
2019-05-02T16:54:04.914Z,6.00
2019-05-02T16:59:07.553Z,7.70
2019-05-02T17:04:12.926Z,7.33
2019-05-02T17:09:42.830Z,5.83
2019-05-02T17:15:07.986Z,7.87
2019-05-02T17:20:16.487Z,7.60
2019-05-02T17:25:19.919Z,8.03
2019-05-02T17:30:24.511Z,7.93
2019-05-02T17:35:29.196Z,6.87
2019-05-02T17:40:33.735Z,6.30
2019-05-02T17:45:40.129Z,7.07
2019-05-02T17:51:07.778Z,6.23
2019-05-02T17:56:20.946Z,6.80
2019-05-02T18:01:33.404Z,6.53
2019-05-02T18:06:35.706Z,6.57
2019-05-02T18:11:42.293Z,5.97
2019-05-02T18:16:53.685Z,5.57
2019-05-02T18:21:58.109Z,5.63
2019-05-02T18:27:02.399Z,5.57
2019-05-02T18:32:09.862Z,5.40
2019-05-02T18:37:14.923Z,5.10
2019-05-02T18:42:23.798Z,4.63
2019-05-02T18:47:27.065Z,5.00
2019-05-02T18:52:37.991Z,5.30
2019-05-02T18:57:38.116Z,5.73
2019-05-02T19:02:42.784Z,5.50
2019-05-02T19:07:52.023Z,6.03
2019-05-02T19:12:56.016Z,5.97
2019-05-02T19:18:00.224Z,5.17
2019-05-02T19:23:07.486Z,4.73
2019-05-02T19:28:17.365Z,5.37
2019-05-02T19:33:23.507Z,4.77
2019-05-02T19:38:29.386Z,6.63
2019-05-02T19:43:34.950Z,5.87
2019-05-02T19:48:42.871Z,5.87
2019-05-02T19:53:51.705Z,6.10
2019-05-02T19:58:54.901Z,6.23
2019-05-02T20:04:04.403Z,5.97
2019-05-02T20:09:08.334Z,5.20
2019-05-02T20:14:14.700Z,5.30
2019-05-02T20:19:23.166Z,5.20
2019-05-02T20:24:49.239Z,5.10
2019-05-02T20:29:52.902Z,5.53
2019-05-02T20:34:57.450Z,5.20
2019-05-02T20:40:03.221Z,5.30
2019-05-02T20:45:07.821Z,5.63
2019-05-02T20:50:13.805Z,5.33
2019-05-02T20:55:18.328Z,5.27
2019-05-02T21:00:23.590Z,5.03
2019-05-02T21:05:33.235Z,5.70
2019-05-02T21:10:42.266Z,5.60
2019-05-02T21:15:46.805Z,4.80
2019-05-02T21:20:52.717Z,5.50
2019-05-02T21:25:57.453Z,5.70
2019-05-02T21:31:03.124Z,5.40
2019-05-02T21:36:08.671Z,5.23
2019-05-02T21:41:14.491Z,5.33
2019-05-02T21:46:19.079Z,5.43
2019-05-02T21:51:44.303Z,5.53
2019-05-02T21:56:52.474Z,4.87
2019-05-02T22:02:02.478Z,5.57
2019-05-02T22:07:07.254Z,5.20
2019-05-02T22:12:13.148Z,5.53
2019-05-02T22:17:17.759Z,6.00
2019-05-02T22:22:23.446Z,5.77
2019-05-02T22:27:28.549Z,6.33
2019-05-02T22:32:34.255Z,5.80
2019-05-02T22:37:40.438Z,6.50
2019-05-02T22:42:45.157Z,5.93
2019-05-02T22:47:49.749Z,5.47
2019-05-02T22:52:55.617Z,5.93
2019-05-02T22:58:02.261Z,6.10
2019-05-02T23:03:07.750Z,5.60
2019-05-02T23:08:13.556Z,6.07
2019-05-02T23:13:19.234Z,5.63
2019-05-02T23:18:23.781Z,6.00
2019-05-02T23:23:29.990Z,6.23
2019-05-02T23:28:36.415Z,5.60
2019-05-02T23:34:02.226Z,6.20
2019-05-02T23:39:07.030Z,6.33
2019-05-02T23:44:12.442Z,6.80
2019-05-02T23:49:17.012Z,6.13
2019-05-02T23:54:22.762Z,6.83
2019-05-02T23:59:27.318Z,6.90
